Sagehen Creek Weather observations

Data are for observation ending at time listed.
 Day   Time    Ave.   Ave.  Ave.  Vector   Max.   Stn.    Total    Solar   Ave.  
  of    of     Air    Rel.  Wind   Wind    Wind   Baro.  Precip.   Rad.    Soil  
Year   Day     Temp.  Hum.  Speed  Dir.    Gust   Pres.                    Temp. 
2016   (PST)    F      %     mph   deg.    mph     mb.     in.     W/m2     F   
------------------------------------------------------------------------------
  44    8:40   21.3    81    0.0     0      0.0   841.9    9.52      70    999.0
  44    8:50   22.2    79    0.0     0      0.0   841.6    9.52     334    999.0
  44    9:00   24.1    77    0.0     0      0.0   841.4    9.52     365    999.0
  44    9:10   27.4    71    0.0     0      0.0   841.8    9.52     389    999.0
  44    9:20   30.2    64    0.0     0      0.0   841.6    9.55     415    999.0
  44    9:30   31.9    59    0.0     0      0.0   841.4    9.55     443    999.0
  44    9:40   34.5    54    0.0     0      0.0   841.8    9.54     470    999.0
  44    9:50   36.0    52    0.0     0      0.0   841.8    9.54     496    999.0
  44   10:00   38.0    49    0.4   163      1.4   841.8    9.55     521    999.0
  44   10:10   39.2    47    0.6   172      1.5   841.2    9.55     544    999.0
  44   10:20   42.3    42    1.1   129      2.2   841.4    9.53     566    999.0
  44   10:30   45.5    35    2.3   110      3.8   841.6    9.54     586    999.0
  44   10:40   47.1    27    3.3   100      5.1   841.2    9.54     583    999.0
  44   10:50   49.3    20    3.8    94      5.1   841.4    9.54     620    999.0
  44   11:00   50.2    18    3.6    97      5.5   841.6    9.54     636    999.0
  44   11:10   51.5    16    2.3    91      4.4   841.2    9.54     650    999.0
  44   11:20   52.6    15    2.0    88      4.9   841.3    9.55     663    999.0
  44   11:30   52.9    13    2.8    84      6.0   841.3    9.55     674    999.0
  44   11:40   51.4    13    1.8    53      3.7     0.0    9.55     685    999.0
  44   11:50   53.1    14    3.3    93      6.7   434.7    9.55     689    999.0
  44   12:00   53.3    16    3.2    86      6.8   841.4    9.55     692    999.0
  44   12:10   53.8    16    3.2    93      5.8   841.2    9.55     695    999.0
  44   12:20   53.9    16    2.8   108      6.3   841.2    9.55     694    999.0
  44   12:30   54.4    15    2.7    80      6.6   841.3    9.55     676    999.0
  44   12:40   54.2    16    3.4    92      5.6   841.1    9.55     690    999.0
  44   12:50   54.4    18    2.8    92      6.7   841.0    9.55     685    999.0
  44   13:00   54.6    17    2.1    95      5.0   841.0    9.55     679    999.0
  44   13:10   54.4    16    2.2   149      5.4   840.9    9.55     671    999.0
  44   13:20   54.2    17    2.8    81      6.8   840.8    9.55     471    999.0
  44   13:30   54.2    16    2.1    63      4.3   840.7    9.55     462    999.0
  44   13:40   54.6    18    2.1    98      5.0   840.5    9.55     634    999.0
  44   13:50   54.1    17    2.8    97      6.2   840.3    9.55     334    999.0
  44   14:00   53.6    15    2.7    74      5.8   840.1    9.55      74    999.0
  44   14:10   53.8    15    1.8    89      4.8   839.9    9.55     258    999.0
  44   14:20   54.8    14    2.0    96      5.3   840.0    9.55     565    999.0
  44   14:30   55.3    15    1.9   131      3.8   840.0    9.55     544    999.0
  44   14:40   56.1    15    1.3    93      3.6   839.9    9.55     524    999.0
  44   14:50   55.6    14    1.3   132      4.1   839.8    9.54     499    999.0
  44   15:00   55.2    19    1.3    88      3.7   839.7    9.54     473    999.0
  44   15:10   55.2    19    1.1   186      4.1   839.7    9.55     336    999.0
  44   15:20   51.5    30    1.0   248      3.8   839.7    9.55     225    999.0
  44   15:30   49.5    31    0.5    32      2.0   839.8    9.55     275    999.0
  44   15:40   48.6    32    0.9   261      2.6   839.9    9.55     147    999.0
  44   15:50   47.3    34    1.2   236      3.3   840.0    9.55      73    999.0
  44   16:00   45.3    43    0.5   261      1.9   840.1    9.55      89    999.0
  44   16:10   43.4    50    0.4   275      1.2   840.1    9.55     104    999.0
  44   16:20   42.8    53    0.4   283      1.6   840.0    9.55      82    999.0
  44   16:30   41.9    56    0.6   280      1.8   839.9    9.55      36    999.0
  44   16:40   41.0    57    0.5   275      1.5   839.8    9.55      30    999.0
  44   16:50   39.0    62    0.5   269      1.2   839.6    9.55      25    999.0
  44   17:00   37.3    66    0.9   268      1.4   839.5    9.55      22    999.0
  44   17:10   36.0    71    0.9   264      1.3   839.8    9.55      26    999.0
  44   17:20   35.4    73    0.4   249      1.4   839.8    9.55      19    999.0
  44   17:30   34.8    74    0.4   266      1.2   839.8    9.55       7    999.0
  44   17:40   34.2    74    0.3   270      0.8   840.1    9.55       2    999.0
  44   17:50   33.6    75    0.5   264      1.2   840.2    9.55       1    999.0
  44   18:00   33.0    76    0.2   260      0.8   840.4    9.55       0    999.0
  44   18:10   32.4    77    0.3   256      1.0   840.4    9.55       0    999.0
  44   18:20   32.1    77    0.9   256      1.3   840.5    9.55       0    999.0
  44   18:30   31.9    77    0.3   245      1.5   840.6    9.55       0    999.0
  44   18:40   31.5    78    0.5   263      1.1   840.9    9.55       0    999.0
  44   18:50   31.4    77    0.5   250      1.0   840.7    9.55       0    999.0
  44   19:00   31.1    79    0.8   260      1.3   840.5    9.55       0    999.0
  44   19:10   30.9    80    0.7   244      1.6   840.8    9.55       0    999.0
  44   19:20   30.6    80    0.6   253      1.2   840.8    9.55       0    999.0
  44   19:30   30.2    81    0.5   250      1.2   840.8    9.55       0    999.0
  44   19:40   29.9    80    0.9   268      1.2   841.0    9.55       0    999.0
  44   19:50   29.6    81    0.5   256      1.2   841.0    9.55       0    999.0
  44   20:00   29.3    82    0.4   269      1.2   841.1    9.55       0    999.0
  44   20:10   29.2    82    0.4   240      0.9   840.9    9.55       0    999.0
  44   20:20   29.3    82    0.3   272      0.9   841.0    9.55       0    999.0
  44   20:30   29.2    82    0.7   268      1.4   841.0    9.55       0    999.0
  44   20:40   29.1    82    0.6   258      1.2   841.0    9.55       0    999.0
  44   20:50   28.9    83    0.1   250      0.6   840.8    9.55       0    999.0
  44   21:00   28.8    83    0.7   267      1.2   840.6    9.55       0    999.0
  44   21:10   28.8    83    0.5   270      1.1   841.1    9.55       0    999.0
  44   21:20   28.9    83    0.1   252      1.1   841.1    9.55       0    999.0
  44   21:30   28.8    83    0.6   268      1.4   841.1    9.55       0    999.0
  44   21:40   28.5    84    0.6   261      1.3   841.1    9.55       0    999.0
  44   21:50   28.1    84    0.2   269      1.2   841.2    9.55       0    999.0
  44   22:00   27.9    84    0.3   258      1.0   841.4    9.55       0    999.0
  44   22:10   27.7    85    0.4   264      1.3   841.1    9.55       0    999.0
  44   22:20   27.6    85    0.4   262      1.3   841.2    9.55       0    999.0
  44   22:30   27.7    86    0.3   248      1.2   841.3    9.55       0    999.0
  44   22:40   27.9    85    0.1   282      1.0   841.3    9.55       0    999.0
  44   22:50   28.1    84    0.4   271      1.0   841.4    9.55       0    999.0
  44   23:00   28.1    84    0.4   260      1.1   841.4    9.55       0    999.0
  44   23:10   28.0    84    0.3   265      1.3   841.1    9.55       0    999.0
  44   23:20   28.0    84    0.0     0      0.0   841.2    9.55       0    999.0
  44   23:30   28.0    84    0.0     0      0.0   841.2    9.55       0    999.0
  44   23:40   27.9    84    0.2   248      1.1   841.0    9.55       0    999.0
  44   23:50   27.7    84    0.1   262      1.0   841.0    9.55       0    999.0
  45    0:00   27.7    85    0.2   214      1.1   841.0    9.55       0    999.0
  45    0:10   27.7    85    0.3   213      1.3   840.9    9.55       0    999.0
  45    0:20   27.4    85    0.4   266      1.5   841.2    9.55       0    999.0
  45    0:30   27.1    85    0.2   254      1.0   841.4    9.55       0    999.0
  45    0:40   26.7    86    0.6   280      1.4   841.3    9.55       0    999.0
  45    0:50   26.6    86    0.3   279      1.1   841.3    9.55       0    999.0
  45    1:00   26.5    87    0.4   267      1.8   841.3    9.55       0    999.0
  45    1:10   26.5    87    0.3   293      1.1   841.7    9.55       0    999.0
  45    1:20   26.6    86    0.8   266      2.0   841.3    9.55       0    999.0
  45    1:30   26.6    86    0.1   240      0.6   840.9    9.55       0    999.0
  45    1:40   26.5    86    0.6   258      1.6   841.0    9.55       0    999.0
  45    1:50   26.4    86    0.0   264      0.5   841.1    9.55       0    999.0
  45    2:00   26.3    86    0.3   237      1.2   841.2    9.55       0    999.0
  45    2:10   26.1    86    0.1   282      1.2   840.9    9.55       0    999.0
  45    2:20   26.3    86    0.8   276      2.7   840.6    9.55       0    999.0
  45    2:30   26.3    86    0.5   253      1.4   840.4    9.55       0    999.0
  45    2:40   26.2    86    0.4   174      1.7   841.0    9.55       0    999.0
  45    2:50   26.1    86    0.5   265      1.4   840.8    9.55       0    999.0
  45    3:00   26.1    86    0.1   252      1.1   840.6    9.55       0    999.0
  45    3:10   25.8    86    0.3   258      1.4   841.1    9.55       0    999.0
  45    3:20   25.8    86    0.3   216      1.3   841.1    9.55       0    999.0
  45    3:30   25.8    86    0.2   271      1.4   841.1    9.55       0    999.0
  45    3:40   25.8    86    0.5   247      1.5   841.1    9.55       0    999.0
  45    3:50   25.8    86    0.0   259      1.0   841.0    9.55       0    999.0
  45    4:00   25.7    86    0.2   257      1.1   840.8    9.55       0    999.0
  45    4:10   25.5    86    0.1   257      1.1   841.3    9.55       0    999.0
  45    4:20   25.2    87    0.3   260      1.5   841.4    9.55       0    999.0
  45    4:30   25.3    87    0.6   263      1.6   841.4    9.55       0    999.0
  45    4:40   25.1    87    0.0     0      0.0   841.2    9.55       0    999.0
  45    4:50   24.8    87    0.4   261      1.1   841.3    9.55       0    999.0
  45    5:00   24.9    87    0.2   255      1.2   841.5    9.55       0    999.0
  45    5:10   24.8    87    0.1   248      1.0   840.9    9.55       0    999.0
  45    5:20   24.6    87    0.2   258      0.8   841.0    9.55       0    999.0
  45    5:30   24.8    87    0.3   256      1.0   841.2    9.55       0    999.0
  45    5:40   24.8    87    0.1   237      0.8   841.2    9.55       0    999.0
  45    5:50   24.9    87    0.1   271      0.7   841.2    9.55       0    999.0
  45    6:00   25.0    87    0.1   263      0.6   841.2    9.55       0    999.0
  45    6:10   24.8    87    0.1    92      1.6   841.4    9.55       0    999.0
  45    6:20   24.8    87    0.4    89      1.4   841.5    9.55       0    999.0
  45    6:30   24.8    87    0.1   254      0.9   841.6    9.55       0    999.0
  45    6:40   24.7    87    0.5   248      1.1   841.6    9.55       0    999.0
  45    6:50   24.7    88    0.2   247      0.8   841.6    9.55       1    999.0
  45    7:00   24.7    88    0.4   290      1.1   841.6    9.55       3    999.0
  45    7:10   24.9    87    0.3   272      1.6   841.6    9.55       6    999.0
  45    7:20   25.1    87    0.3   266      1.2   841.7    9.55      11    999.0
  45    7:30   25.3    87    0.3   246      1.6   841.7    9.55      22    999.0
  45    7:40   25.6    87    0.3   264      1.0   842.0    9.55      39    999.0
  45    7:50   25.9    86    0.2   262      1.1   842.1    9.55      37    999.0
  45    8:00   26.3    86    0.3   261      1.0   842.2    9.55      45    999.0
  45    8:10   26.7    86    0.0     0      0.0   842.5    9.55      59    999.0
  45    8:20   27.2    85    0.3   252      1.1   842.5    9.55      90    999.0
  45    8:30   27.8    85    0.2   253      1.0   842.5    9.55      90    999.0

Return to Sagehen Creek graphs page.


Western Regional Climate Center,wrcc@dri.edu